Time;durP1;ratioP1;P1;durP2;ratioP2;P2;SDS_P1;SDS_P2;PMS_P1;PMS_P2;Temp;Humidity;BMP_temperature;BMP_pressure;BME280_temperature;BME280_humidity;BME280_pressure;Samples;Min_cycle;Max_cycle;Signal;HPM_P1;HPM_P2
2021/08/15 00:02:21;;;;;;;42.10;22.33;;;;;;;;;;5041056;28;20052;-60
2021/08/15 00:04:47;;;;;;;41.05;22.27;;;;;;;;;;5037690;28;20399;-59
2021/08/15 00:07:12;;;;;;;47.72;22.38;;;;;;;;;;5041153;28;20037;-60
2021/08/15 00:09:38;;;;;;;42.60;23.15;;;;;;;;;;5039265;28;20083;-59
2021/08/15 00:12:05;;;;;;;41.20;21.98;;;;;;;;;;5040436;28;20037;-59
2021/08/15 00:14:31;;;;;;;36.20;20.42;;;;;;;;;;5041084;28;20028;-59
2021/08/15 00:16:56;;;;;;;38.15;20.35;;;;;;;;;;5042659;28;20054;-59
2021/08/15 00:19:22;;;;;;;36.80;22.08;;;;;;;;;;5038955;28;20021;-59
2021/08/15 00:21:47;;;;;;;41.55;21.92;;;;;;;;;;5043627;28;20041;-59
2021/08/15 00:24:12;;;;;;;44.60;21.58;;;;;;;;;;5043485;28;20052;-59
2021/08/15 00:26:38;;;;;;;39.22;20.98;;;;;;;;;;5038889;28;20091;-59
2021/08/15 00:29:03;;;;;;;35.85;20.17;;;;;;;;;;5041519;28;20128;-59
2021/08/15 00:31:29;;;;;;;37.63;20.92;;;;;;;;;;5041763;28;20029;-59
2021/08/15 00:33:55;;;;;;;37.47;21.38;;;;;;;;;;5046539;28;20439;-59
2021/08/15 00:36:20;;;;;;;38.38;20.55;;;;;;;;;;5042786;28;20033;-59
2021/08/15 00:38:46;;;;;;;43.17;23.30;;;;;;;;;;5038494;28;20033;-59
2021/08/15 00:41:11;;;;;;;41.78;22.92;;;;;;;;;;5045545;28;20248;-59
2021/08/15 00:43:37;;;;;;;36.20;22.13;;;;;;;;;;5042364;28;20040;-59
2021/08/15 00:46:11;;;;;;;41.40;22.42;;;;;;;;;;5050826;28;20025;-59
2021/08/15 00:48:36;;;;;;;41.40;23.38;;;;;;;;;;5033241;28;20021;-59
2021/08/15 00:51:03;;;;;;;42.10;22.15;;;;;;;;;;5041250;28;20052;-59
2021/08/15 00:53:30;;;;;;;50.03;22.85;;;;;;;;;;5041877;28;20028;-59
2021/08/15 00:56:06;;;;;;;43.33;21.88;;;;;;;;;;5041804;28;20082;-59
2021/08/15 00:58:36;;;;;;;48.72;22.70;;;;;;;;;;5040534;28;20514;-59
2021/08/15 01:01:10;;;;;;;42.70;22.95;;;;;;;;;;5037958;28;20033;-59
2021/08/15 01:03:37;;;;;;;40.50;23.63;;;;;;;;;;5040349;28;20025;-59
2021/08/15 01:06:04;;;;;;;49.45;22.88;;;;;;;;;;5039090;28;20116;-58
2021/08/15 01:08:30;;;;;;;40.97;21.17;;;;;;;;;;5035008;28;20068;-59
2021/08/15 01:10:57;;;;;;;41.70;21.13;;;;;;;;;;5041638;28;20029;-59
2021/08/15 01:13:24;;;;;;;35.50;18.95;;;;;;;;;;5043919;28;20352;-59
2021/08/15 01:15:51;;;;;;;33.90;19.70;;;;;;;;;;5039602;28;20071;-59
2021/08/15 01:18:24;;;;;;;37.50;19.67;;;;;;;;;;5043581;28;20043;-59
2021/08/15 01:21:10;;;;;;;39.25;20.48;;;;;;;;;;5040603;28;20514;-59
2021/08/15 01:23:38;;;;;;;38.80;19.75;;;;;;;;;;5046685;28;20070;-59
2021/08/15 01:26:04;;;;;;;36.92;19.75;;;;;;;;;;5041003;28;20115;-59
2021/08/15 01:28:30;;;;;;;37.08;19.92;;;;;;;;;;5043762;28;20086;-59
2021/08/15 01:30:56;;;;;;;37.70;19.45;;;;;;;;;;5043116;28;20032;-59
2021/08/15 01:33:25;;;;;;;37.58;21.40;;;;;;;;;;5037797;28;20029;-59
2021/08/15 01:35:53;;;;;;;35.60;20.27;;;;;;;;;;5046818;28;20032;-59
2021/08/15 01:38:19;;;;;;;38.20;19.73;;;;;;;;;;5040730;28;20108;-59
2021/08/15 01:40:44;;;;;;;35.30;19.20;;;;;;;;;;5043984;28;20100;-59
2021/08/15 01:43:10;;;;;;;37.47;20.10;;;;;;;;;;5042457;28;20043;-59
2021/08/15 01:45:35;;;;;;;36.40;19.90;;;;;;;;;;5045219;28;20030;-59
2021/08/15 01:48:01;;;;;;;40.72;20.60;;;;;;;;;;5043038;28;20032;-59
2021/08/15 01:50:26;;;;;;;45.78;20.95;;;;;;;;;;5042191;28;20061;-59
2021/08/15 01:52:51;;;;;;;38.47;20.08;;;;;;;;;;5041099;28;20418;-59
2021/08/15 01:55:17;;;;;;;36.05;19.92;;;;;;;;;;5041015;28;20083;-59
2021/08/15 01:57:42;;;;;;;36.72;19.98;;;;;;;;;;5036902;28;20057;-59
2021/08/15 02:00:08;;;;;;;35.17;19.95;;;;;;;;;;5041030;28;20033;-59
2021/08/15 02:02:34;;;;;;;39.83;21.20;;;;;;;;;;5047774;28;20028;-59
2021/08/15 02:04:59;;;;;;;38.67;20.35;;;;;;;;;;5043108;28;20219;-60
2021/08/15 02:07:24;;;;;;;36.10;19.63;;;;;;;;;;5044755;28;20025;-59
2021/08/15 02:09:50;;;;;;;37.47;20.27;;;;;;;;;;5041352;28;20059;-59
2021/08/15 02:12:15;;;;;;;34.67;19.63;;;;;;;;;;5048775;28;20029;-59
2021/08/15 02:14:41;;;;;;;33.58;19.77;;;;;;;;;;5045323;28;20063;-59
2021/08/15 02:17:06;;;;;;;37.42;19.92;;;;;;;;;;5042719;28;20029;-59
2021/08/15 02:19:33;;;;;;;36.00;20.55;;;;;;;;;;5049537;28;20026;-59
2021/08/15 02:21:59;;;;;;;41.95;21.80;;;;;;;;;;5047795;28;20047;-59
2021/08/15 02:24:24;;;;;;;39.53;21.50;;;;;;;;;;5042066;28;20496;-59
2021/08/15 02:26:50;;;;;;;39.30;20.80;;;;;;;;;;5044483;28;20498;-59
2021/08/15 02:29:15;;;;;;;38.10;20.50;;;;;;;;;;5043762;28;20028;-59
2021/08/15 02:31:40;;;;;;;44.65;20.55;;;;;;;;;;5043942;28;20032;-59
2021/08/15 02:34:06;;;;;;;36.35;19.80;;;;;;;;;;5044381;28;20199;-59
2021/08/15 02:36:31;;;;;;;43.35;21.33;;;;;;;;;;5041556;28;20062;-59
2021/08/15 02:38:57;;;;;;;37.65;19.75;;;;;;;;;;5043962;28;20025;-59
2021/08/15 02:41:22;;;;;;;38.55;20.30;;;;;;;;;;5045567;28;20128;-59
2021/08/15 02:43:47;;;;;;;38.05;18.73;;;;;;;;;;5043542;28;20051;-59
2021/08/15 02:46:13;;;;;;;38.17;19.65;;;;;;;;;;5040388;28;20021;-59
2021/08/15 02:48:39;;;;;;;45.67;19.73;;;;;;;;;;5042848;28;20059;-59
2021/08/15 02:51:04;;;;;;;35.28;19.20;;;;;;;;;;5039978;28;20099;-59
2021/08/15 02:53:30;;;;;;;33.72;17.95;;;;;;;;;;5045974;28;20029;-59
2021/08/15 02:55:55;;;;;;;40.42;19.38;;;;;;;;;;5039413;28;20041;-59
2021/08/15 02:58:20;;;;;;;34.60;18.42;;;;;;;;;;5042166;28;20426;-59
2021/08/15 03:00:46;;;;;;;32.40;18.55;;;;;;;;;;5039718;28;20033;-59
2021/08/15 03:03:11;;;;;;;39.70;18.40;;;;;;;;;;5042726;28;20028;-59
2021/08/15 03:05:36;;;;;;;34.42;19.25;;;;;;;;;;5044428;28;20036;-59
2021/08/15 03:08:02;;;;;;;34.50;18.50;;;;;;;;;;5039620;28;20440;-58
2021/08/15 03:10:27;;;;;;;34.45;19.17;;;;;;;;;;5037778;28;20063;-59
2021/08/15 03:12:53;;;;;;;32.22;18.55;;;;;;;;;;5044193;28;20294;-59
2021/08/15 03:15:18;;;;;;;36.15;18.30;;;;;;;;;;5043145;28;20337;-59
2021/08/15 03:17:44;;;;;;;34.13;17.83;;;;;;;;;;5045161;28;20391;-59
2021/08/15 03:20:10;;;;;;;33.28;18.45;;;;;;;;;;5042073;28;20264;-59
2021/08/15 03:22:35;;;;;;;31.30;18.55;;;;;;;;;;5048342;28;20028;-59
2021/08/15 03:25:01;;;;;;;38.13;18.80;;;;;;;;;;5038150;28;20545;-59
2021/08/15 03:27:26;;;;;;;31.98;17.88;;;;;;;;;;5044068;28;20419;-59
2021/08/15 03:29:51;;;;;;;34.20;19.50;;;;;;;;;;5040692;28;20102;-59
2021/08/15 03:32:17;;;;;;;36.45;19.30;;;;;;;;;;5043434;28;20025;-59
2021/08/15 03:34:42;;;;;;;37.95;18.38;;;;;;;;;;5045055;28;20059;-59
2021/08/15 03:37:08;;;;;;;33.03;19.35;;;;;;;;;;5046495;28;20034;-59
2021/08/15 03:39:33;;;;;;;35.38;19.33;;;;;;;;;;5044903;28;20033;-59
2021/08/15 03:41:59;;;;;;;34.80;19.08;;;;;;;;;;5038424;28;20020;-58
2021/08/15 03:44:26;;;;;;;39.83;20.70;;;;;;;;;;5040876;28;20032;-59
2021/08/15 03:46:52;;;;;;;35.72;19.40;;;;;;;;;;5040171;28;20025;-59
2021/08/15 03:49:18;;;;;;;32.58;19.38;;;;;;;;;;5041479;28;20080;-59
2021/08/15 03:51:44;;;;;;;38.22;19.75;;;;;;;;;;5044176;28;20055;-59
2021/08/15 03:54:09;;;;;;;36.17;18.63;;;;;;;;;;5044840;28;20495;-59
2021/08/15 03:56:35;;;;;;;35.50;18.92;;;;;;;;;;5042301;28;20317;-59
2021/08/15 03:59:00;;;;;;;33.75;18.63;;;;;;;;;;5038768;28;20487;-58
2021/08/15 04:01:25;;;;;;;30.35;17.25;;;;;;;;;;5040228;28;20492;-59
2021/08/15 04:03:51;;;;;;;37.67;19.42;;;;;;;;;;5044449;28;20029;-59
2021/08/15 04:06:21;;;;;;;31.42;17.75;;;;;;;;;;5047575;28;20443;-59
2021/08/15 04:08:47;;;;;;;35.28;18.08;;;;;;;;;;5039481;28;20083;-59
2021/08/15 04:11:13;;;;;;;32.60;18.17;;;;;;;;;;5044872;28;20034;-59
2021/08/15 04:13:38;;;;;;;35.58;18.15;;;;;;;;;;5045126;28;20073;-59
2021/08/15 04:16:04;;;;;;;36.60;18.75;;;;;;;;;;5040515;28;20075;-59
2021/08/15 04:18:29;;;;;;;37.80;20.10;;;;;;;;;;5040052;28;20475;-59
2021/08/15 04:20:55;;;;;;;35.65;19.95;;;;;;;;;;5043783;28;20032;-59
2021/08/15 04:23:20;;;;;;;33.13;19.10;;;;;;;;;;5042147;28;20116;-59
2021/08/15 04:25:45;;;;;;;36.30;19.50;;;;;;;;;;5044257;28;20036;-59
2021/08/15 04:28:11;;;;;;;37.60;20.50;;;;;;;;;;5041342;28;20400;-58
2021/08/15 04:30:36;;;;;;;40.72;20.52;;;;;;;;;;5045119;28;20114;-59
2021/08/15 04:33:02;;;;;;;35.97;19.13;;;;;;;;;;5036741;28;22883;-59
2021/08/15 04:35:28;;;;;;;47.08;20.65;;;;;;;;;;5047739;28;20024;-59
2021/08/15 04:37:54;;;;;;;37.00;19.88;;;;;;;;;;5045584;28;20048;-59
2021/08/15 04:40:19;;;;;;;34.08;18.52;;;;;;;;;;5042684;28;20021;-59
2021/08/15 04:42:45;;;;;;;33.33;18.10;;;;;;;;;;5039386;28;20373;-59
2021/08/15 04:45:10;;;;;;;36.60;18.95;;;;;;;;;;5042936;28;20028;-59
2021/08/15 04:47:36;;;;;;;36.88;18.48;;;;;;;;;;5045994;28;20037;-58
2021/08/15 04:50:01;;;;;;;37.40;18.70;;;;;;;;;;5042036;28;20104;-59
2021/08/15 04:52:26;;;;;;;35.00;18.40;;;;;;;;;;5036976;28;20025;-59
2021/08/15 04:54:52;;;;;;;36.13;19.90;;;;;;;;;;5046823;28;20024;-59
2021/08/15 04:57:17;;;;;;;37.45;19.33;;;;;;;;;;5044287;28;20044;-59
2021/08/15 04:59:43;;;;;;;33.60;19.08;;;;;;;;;;5036976;28;20127;-59
2021/08/15 05:02:08;;;;;;;34.13;18.52;;;;;;;;;;5039083;28;20123;-59
2021/08/15 05:04:34;;;;;;;30.85;17.80;;;;;;;;;;5046451;28;20024;-58
2021/08/15 05:06:59;;;;;;;32.70;18.65;;;;;;;;;;5039965;28;20036;-58
2021/08/15 05:09:25;;;;;;;36.05;18.35;;;;;;;;;;5040169;28;20029;-58
2021/08/15 05:11:50;;;;;;;33.90;18.52;;;;;;;;;;5042193;28;20024;-58
2021/08/15 05:14:15;;;;;;;35.30;18.55;;;;;;;;;;5040237;28;20027;-58
2021/08/15 05:16:41;;;;;;;32.97;17.92;;;;;;;;;;5045266;28;20057;-58
2021/08/15 05:19:06;;;;;;;32.65;19.30;;;;;;;;;;5043647;28;20782;-58
2021/08/15 05:21:33;;;;;;;34.88;19.40;;;;;;;;;;5040961;28;20441;-58
2021/08/15 05:23:58;;;;;;;33.35;19.10;;;;;;;;;;5038173;28;20029;-58
2021/08/15 05:26:24;;;;;;;34.17;18.95;;;;;;;;;;5044232;28;20441;-58
2021/08/15 05:28:50;;;;;;;45.50;23.10;;;;;;;;;;5034433;28;20116;-59
2021/08/15 05:31:15;;;;;;;37.70;19.77;;;;;;;;;;5046341;28;20159;-59
2021/08/15 05:33:40;;;;;;;36.85;19.92;;;;;;;;;;5039208;28;20060;-59
2021/08/15 05:36:06;;;;;;;36.17;20.52;;;;;;;;;;5044961;28;20136;-59
2021/08/15 05:38:31;;;;;;;41.25;20.30;;;;;;;;;;5042596;28;20055;-59
2021/08/15 05:40:57;;;;;;;35.67;20.33;;;;;;;;;;5041840;28;20363;-59
2021/08/15 05:43:22;;;;;;;39.45;21.85;;;;;;;;;;5040497;28;20036;-59
2021/08/15 05:45:48;;;;;;;35.03;19.85;;;;;;;;;;5040667;28;20146;-59
2021/08/15 05:48:13;;;;;;;34.47;19.85;;;;;;;;;;5041970;28;20075;-59
2021/08/15 05:50:38;;;;;;;33.95;19.58;;;;;;;;;;5043249;28;20052;-59
2021/08/15 05:53:04;;;;;;;35.10;19.13;;;;;;;;;;5042907;28;20029;-59
2021/08/15 05:55:29;;;;;;;34.33;19.88;;;;;;;;;;5039807;28;20059;-60
2021/08/15 05:57:55;;;;;;;32.78;18.80;;;;;;;;;;5038512;28;20433;-59
2021/08/15 06:00:20;;;;;;;40.42;20.00;;;;;;;;;;5042596;28;20021;-59
2021/08/15 06:02:46;;;;;;;52.88;22.02;;;;;;;;;;5035422;28;20037;-59
2021/08/15 06:05:12;;;;;;;37.00;20.45;;;;;;;;;;5041614;28;20625;-60
2021/08/15 06:07:38;;;;;;;40.53;20.65;;;;;;;;;;5040662;28;20126;-59
2021/08/15 06:10:05;;;;;;;34.90;19.83;;;;;;;;;;5027429;28;20029;-59
2021/08/15 06:12:30;;;;;;;41.53;22.30;;;;;;;;;;5042973;28;20032;-59
2021/08/15 06:14:56;;;;;;;41.25;21.42;;;;;;;;;;5041520;28;20030;-60
2021/08/15 06:17:21;;;;;;;40.00;21.67;;;;;;;;;;5039154;28;20074;-61
2021/08/15 06:19:47;;;;;;;35.15;22.83;;;;;;;;;;5044745;28;20025;-59
2021/08/15 06:22:13;;;;;;;46.70;23.52;;;;;;;;;;5040440;28;20021;-59
2021/08/15 06:24:39;;;;;;;46.55;23.42;;;;;;;;;;5044294;28;20030;-60
2021/08/15 06:27:04;;;;;;;45.83;23.40;;;;;;;;;;5036341;28;20037;-59
2021/08/15 06:29:30;;;;;;;42.30;21.90;;;;;;;;;;5033547;28;20062;-60
2021/08/15 06:31:56;;;;;;;39.78;19.92;;;;;;;;;;5032876;28;20058;-59
2021/08/15 06:34:21;;;;;;;36.42;19.73;;;;;;;;;;5039475;28;20159;-59
2021/08/15 06:36:47;;;;;;;37.85;21.23;;;;;;;;;;5039837;28;20522;-58
2021/08/15 06:39:13;;;;;;;38.70;21.45;;;;;;;;;;5044918;28;20032;-58
2021/08/15 06:41:39;;;;;;;35.83;20.45;;;;;;;;;;5046132;28;20036;-58
2021/08/15 06:44:04;;;;;;;40.42;22.25;;;;;;;;;;5040993;28;20040;-58
2021/08/15 06:46:30;;;;;;;37.83;22.15;;;;;;;;;;5043159;28;20025;-57
2021/08/15 06:48:55;;;;;;;44.40;22.38;;;;;;;;;;5050441;28;20036;-59
2021/08/15 06:51:21;;;;;;;42.72;22.58;;;;;;;;;;5040453;28;20052;-58
2021/08/15 06:53:46;;;;;;;42.95;22.77;;;;;;;;;;5041402;28;20029;-59
2021/08/15 06:56:12;;;;;;;39.55;22.20;;;;;;;;;;5044774;28;20039;-59
2021/08/15 06:58:37;;;;;;;36.75;22.00;;;;;;;;;;5039965;28;20218;-59
2021/08/15 07:01:04;;;;;;;38.03;22.35;;;;;;;;;;5037943;28;20036;-59
2021/08/15 07:03:29;;;;;;;34.97;21.05;;;;;;;;;;5035218;28;20029;-60
2021/08/15 07:05:55;;;;;;;33.97;20.42;;;;;;;;;;5044666;28;20672;-59
2021/08/15 07:08:20;;;;;;;38.53;22.02;;;;;;;;;;5034367;28;20025;-59
2021/08/15 07:10:46;;;;;;;42.20;24.25;;;;;;;;;;5043019;28;20017;-59
2021/08/15 07:13:11;;;;;;;42.25;23.35;;;;;;;;;;5042805;28;20060;-60
2021/08/15 07:15:37;;;;;;;38.28;22.52;;;;;;;;;;5045517;28;20459;-60
2021/08/15 07:18:03;;;;;;;39.63;22.98;;;;;;;;;;5038445;28;20087;-59
2021/08/15 07:20:29;;;;;;;36.20;21.50;;;;;;;;;;5047031;28;20059;-59
2021/08/15 07:22:56;;;;;;;42.95;22.27;;;;;;;;;;5042173;28;20112;-59
2021/08/15 07:25:24;;;;;;;38.70;21.98;;;;;;;;;;5046313;28;20055;-59
2021/08/15 07:27:50;;;;;;;37.17;21.10;;;;;;;;;;5042416;28;20021;-58
2021/08/15 07:30:15;;;;;;;37.47;21.90;;;;;;;;;;5049646;28;20044;-59
2021/08/15 07:32:55;;;;;;;36.85;21.02;;;;;;;;;;5046736;28;20028;-59
2021/08/15 07:35:21;;;;;;;42.67;22.75;;;;;;;;;;5047887;28;20021;-60
2021/08/15 07:37:46;;;;;;;41.17;22.50;;;;;;;;;;5040350;28;20020;-59
2021/08/15 07:40:13;;;;;;;44.13;22.13;;;;;;;;;;5046439;28;20503;-59
2021/08/15 07:42:38;;;;;;;38.72;21.42;;;;;;;;;;5044588;28;20086;-59
2021/08/15 07:45:04;;;;;;;40.67;20.90;;;;;;;;;;5041062;28;20045;-59
2021/08/15 07:47:30;;;;;;;41.58;22.38;;;;;;;;;;5040521;28;20392;-59
2021/08/15 07:49:55;;;;;;;36.88;20.73;;;;;;;;;;5043883;28;20028;-59
2021/08/15 07:52:20;;;;;;;38.65;21.83;;;;;;;;;;5042460;28;20041;-59
2021/08/15 07:54:46;;;;;;;42.20;22.13;;;;;;;;;;5044618;28;20068;-60
2021/08/15 07:57:11;;;;;;;40.75;21.73;;;;;;;;;;5040801;28;20366;-60
2021/08/15 07:59:37;;;;;;;35.80;20.33;;;;;;;;;;5039978;28;20034;-60
2021/08/15 08:02:02;;;;;;;40.47;20.92;;;;;;;;;;5048773;28;20044;-60
2021/08/15 08:04:28;;;;;;;36.65;21.85;;;;;;;;;;5041119;28;20033;-60
2021/08/15 08:06:53;;;;;;;38.75;22.10;;;;;;;;;;5041926;28;20029;-61
2021/08/15 08:09:19;;;;;;;39.33;21.30;;;;;;;;;;5033823;28;20026;-60
2021/08/15 08:11:45;;;;;;;38.25;22.25;;;;;;;;;;5043949;28;20041;-60
2021/08/15 08:14:11;;;;;;;33.80;20.38;;;;;;;;;;5035988;28;20099;-60
2021/08/15 08:16:36;;;;;;;35.45;21.10;;;;;;;;;;5043579;28;20060;-59
2021/08/15 08:19:02;;;;;;;37.05;21.75;;;;;;;;;;5044858;28;20021;-60
2021/08/15 08:21:27;;;;;;;37.95;21.83;;;;;;;;;;5042655;28;20029;-59
2021/08/15 08:23:52;;;;;;;35.63;21.33;;;;;;;;;;5045166;28;20021;-60
2021/08/15 08:26:18;;;;;;;36.22;21.42;;;;;;;;;;5038979;28;20513;-60
2021/08/15 08:28:43;;;;;;;36.17;21.67;;;;;;;;;;5046442;28;20204;-60
2021/08/15 08:31:09;;;;;;;35.28;21.45;;;;;;;;;;5044860;28;20032;-60
2021/08/15 08:33:34;;;;;;;38.42;22.52;;;;;;;;;;5042799;28;20343;-60
2021/08/15 08:36:00;;;;;;;39.75;22.00;;;;;;;;;;5043704;28;20028;-60
2021/08/15 08:38:25;;;;;;;39.13;22.40;;;;;;;;;;5045275;28;20068;-60
2021/08/15 08:40:53;;;;;;;36.92;22.08;;;;;;;;;;5045099;28;20031;-60
2021/08/15 08:43:20;;;;;;;39.25;21.45;;;;;;;;;;5047156;28;20033;-60
2021/08/15 08:45:46;;;;;;;35.30;21.38;;;;;;;;;;5041798;28;20020;-60
2021/08/15 08:48:12;;;;;;;37.55;21.83;;;;;;;;;;5040877;28;20025;-60
2021/08/15 08:50:38;;;;;;;38.13;22.63;;;;;;;;;;5041516;28;20026;-60
2021/08/15 08:53:04;;;;;;;37.03;23.05;;;;;;;;;;5041123;28;20075;-60
2021/08/15 08:55:30;;;;;;;35.90;22.00;;;;;;;;;;5044937;28;20028;-60
2021/08/15 08:57:55;;;;;;;31.70;21.15;;;;;;;;;;5043367;28;20097;-60
2021/08/15 09:00:20;;;;;;;41.83;23.13;;;;;;;;;;5045672;28;20483;-60
2021/08/15 09:02:46;;;;;;;37.25;23.02;;;;;;;;;;5047774;28;20032;-60
2021/08/15 09:05:11;;;;;;;38.25;21.48;;;;;;;;;;5042887;28;20033;-60
2021/08/15 09:07:39;;;;;;;37.38;21.45;;;;;;;;;;5038585;28;20547;-60
2021/08/15 09:10:08;;;;;;;33.20;20.48;;;;;;;;;;5024871;28;20086;-60
2021/08/15 09:12:37;;;;;;;35.17;21.88;;;;;;;;;;5036538;28;20408;-58
2021/08/15 09:15:17;;;;;;;;;;;;;;;;;;5038598;28;20496;-58
2021/08/15 09:17:44;;;;;;;33.97;21.92;;;;;;;;;;5043835;28;19920;-58
2021/08/15 09:20:12;;;;;;;35.17;21.17;;;;;;;;;;5041878;28;20040;-59
2021/08/15 09:22:39;;;;;;;34.95;22.60;;;;;;;;;;5040625;28;20039;-59
2021/08/15 09:25:10;;;;;;;42.47;24.70;;;;;;;;;;5040974;28;20334;-59
2021/08/15 09:27:37;;;;;;;40.22;22.10;;;;;;;;;;5040578;28;20530;-59
2021/08/15 09:30:23;;;;;;;37.83;21.60;;;;;;;;;;5044623;28;20036;-59
2021/08/15 09:32:57;;;;;;;38.95;25.45;;;;;;;;;;5040333;28;20042;-59
2021/08/15 09:35:36;;;;;;;36.83;21.95;;;;;;;;;;5037924;28;20025;-59
2021/08/15 09:38:12;;;;;;;35.63;21.13;;;;;;;;;;5041985;28;20515;-59
2021/08/15 09:40:42;;;;;;;36.13;21.50;;;;;;;;;;5044468;28;20070;-59
2021/08/15 09:43:20;;;;;;;39.53;21.83;;;;;;;;;;5046557;28;20025;-59
2021/08/15 09:45:46;;;;;;;33.03;21.33;;;;;;;;;;5049647;28;20534;-59
2021/08/15 09:48:36;;;;;;;35.45;20.95;;;;;;;;;;5039672;28;20029;-59
2021/08/15 09:51:17;;;;;;;30.83;21.50;;;;;;;;;;5038681;28;20033;-59
2021/08/15 09:53:53;;;;;;;33.15;21.27;;;;;;;;;;5042888;28;20028;-59
2021/08/15 09:56:38;;;;;;;41.15;21.50;;;;;;;;;;5036465;28;20399;-59
2021/08/15 09:59:19;;;;;;;32.30;20.98;;;;;;;;;;5037391;28;20362;-59
2021/08/15 10:01:50;;;;;;;43.67;23.75;;;;;;;;;;5045336;28;20132;-59
2021/08/15 10:04:18;;;;;;;33.88;21.45;;;;;;;;;;5037536;28;20032;-60
2021/08/15 10:06:46;;;;;;;37.20;21.13;;;;;;;;;;5039857;28;20186;-59
2021/08/15 10:09:11;;;;;;;36.17;22.42;;;;;;;;;;5042774;28;20033;-59
2021/08/15 10:11:38;;;;;;;38.72;21.75;;;;;;;;;;5044208;28;20571;-59
2021/08/15 10:14:06;;;;;;;37.17;21.63;;;;;;;;;;5038947;28;20037;-59
2021/08/15 10:16:45;;;;;;;46.43;23.23;;;;;;;;;;5042600;28;20068;-59
2021/08/15 10:19:12;;;;;;;;;;;;;;;;;;5042162;28;20029;-59
2021/08/15 10:21:44;;;;;;;38.38;21.83;;;;;;;;;;5044275;28;19923;-60
2021/08/15 10:24:12;;;;;;;34.65;21.83;;;;;;;;;;5044527;28;20049;-59
2021/08/15 10:26:40;;;;;;;34.35;22.67;;;;;;;;;;5045313;28;20028;-59
2021/08/15 10:29:36;;;;;;;37.67;22.83;;;;;;;;;;5043673;28;20040;-59
2021/08/15 10:32:09;;;;;;;32.20;21.33;;;;;;;;;;5041863;28;20310;-59
2021/08/15 10:34:50;;;;;;;39.35;22.50;;;;;;;;;;5045779;28;20144;-59
2021/08/15 10:37:24;;;;;;;42.33;22.67;;;;;;;;;;5046500;28;20155;-59
2021/08/15 10:39:52;;;;;;;35.92;23.05;;;;;;;;;;5045873;28;20040;-59
2021/08/15 10:42:39;;;;;;;38.80;22.23;;;;;;;;;;5044602;28;20024;-59
2021/08/15 10:45:07;;;;;;;39.88;22.50;;;;;;;;;;5046676;28;20111;-60
2021/08/15 10:47:33;;;;;;;38.67;22.05;;;;;;;;;;5040935;28;20384;-60
2021/08/15 10:50:03;;;;;;;36.85;22.75;;;;;;;;;;5040657;28;20047;-59
2021/08/15 10:52:40;;;;;;;33.72;22.55;;;;;;;;;;5040965;28;20151;-60
2021/08/15 10:55:17;;;;;;;39.00;22.50;;;;;;;;;;5044864;28;20178;-60
2021/08/15 10:57:51;;;;;;;39.20;22.10;;;;;;;;;;5046442;28;20052;-59
2021/08/15 11:00:28;;;;;;;34.00;21.33;;;;;;;;;;5044358;28;20094;-60
2021/08/15 11:02:55;;;;;;;36.30;22.67;;;;;;;;;;5048972;28;20553;-60
2021/08/15 11:05:35;;;;;;;32.65;21.52;;;;;;;;;;5039718;28;20330;-60
2021/08/15 11:08:01;;;;;;;34.65;21.90;;;;;;;;;;5041475;28;20484;-60
2021/08/15 11:11:03;;;;;;;38.47;22.17;;;;;;;;;;5043894;28;20029;-60
2021/08/15 11:13:31;;;;;;;35.75;22.00;;;;;;;;;;5043671;28;20490;-60
2021/08/15 11:16:25;;;;;;;34.00;21.75;;;;;;;;;;5045150;28;20056;-60
2021/08/15 11:19:08;;;;;;;37.58;22.38;;;;;;;;;;5044081;28;20032;-60
2021/08/15 11:22:05;;;;;;;37.50;20.90;;;;;;;;;;5044302;28;20056;-60
2021/08/15 11:24:53;;;;;;;38.42;21.70;;;;;;;;;;5047569;28;20095;-60
2021/08/15 11:27:18;;;;;;;34.92;20.13;;;;;;;;;;5038603;28;20053;-60
2021/08/15 11:29:45;;;;;;;38.88;22.05;;;;;;;;;;5046731;28;20071;-60
2021/08/15 11:32:17;;;;;;;36.30;20.85;;;;;;;;;;5037956;28;20036;-60
2021/08/15 11:34:50;;;;;;;36.17;21.17;;;;;;;;;;5046401;28;20067;-60
2021/08/15 11:37:18;;;;;;;34.20;21.13;;;;;;;;;;5046244;28;20103;-60
2021/08/15 11:39:44;;;;;;;;;;;;;;;;;;5041904;28;20029;-60
2021/08/15 11:42:22;;;;;;;33.40;19.67;;;;;;;;;;5041011;28;20112;-60
2021/08/15 11:44:58;;;;;;;33.83;19.90;;;;;;;;;;5042235;28;20225;-60
2021/08/15 11:47:36;;;;;;;31.40;20.45;;;;;;;;;;5047117;28;20619;-60
2021/08/15 11:50:22;;;;;;;33.30;20.40;;;;;;;;;;5043990;28;20483;-60
2021/08/15 11:52:49;;;;;;;36.15;20.13;;;;;;;;;;5040704;28;20064;-60
2021/08/15 11:55:19;;;;;;;31.15;19.90;;;;;;;;;;5041928;28;20108;-60
2021/08/15 11:57:52;;;;;;;37.22;20.67;;;;;;;;;;5045515;28;20036;-60
2021/08/15 12:00:31;;;;;;;31.20;20.48;;;;;;;;;;5044571;28;20420;-60
2021/08/15 12:03:14;;;;;;;31.40;19.70;;;;;;;;;;5045744;28;20286;-61
2021/08/15 12:05:44;;;;;;;29.33;20.23;;;;;;;;;;5045003;28;20043;-61
2021/08/15 12:08:12;;;;;;;37.92;20.35;;;;;;;;;;5039977;28;20036;-60
2021/08/15 12:10:44;;;;;;;28.02;18.88;;;;;;;;;;5042558;28;20442;-60
2021/08/15 12:13:17;;;;;;;30.25;19.80;;;;;;;;;;5041469;28;20041;-60
2021/08/15 12:15:50;;;;;;;32.25;19.83;;;;;;;;;;5038213;28;20033;-60
2021/08/15 12:18:31;;;;;;;34.22;19.65;;;;;;;;;;5039402;28;20115;-61
2021/08/15 12:21:15;;;;;;;33.40;19.48;;;;;;;;;;5044259;28;20128;-61
2021/08/15 12:24:07;;;;;;;30.15;18.88;;;;;;;;;;5044088;28;20036;-61
2021/08/15 12:26:44;;;;;;;34.08;19.05;;;;;;;;;;5044426;28;20454;-61
2021/08/15 12:29:17;;;;;;;26.55;18.23;;;;;;;;;;5044134;28;20029;-61
2021/08/15 12:31:43;;;;;;;26.10;17.67;;;;;;;;;;5047585;28;20047;-61
2021/08/15 12:34:26;;;;;;;27.80;17.83;;;;;;;;;;5042990;28;20033;-61
2021/08/15 12:36:54;;;;;;;25.02;17.27;;;;;;;;;;5046816;28;20144;-61
2021/08/15 12:39:32;;;;;;;29.00;18.37;;;;;;;;;;5050211;28;20094;-61
2021/08/15 12:42:00;;;;;;;33.97;18.13;;;;;;;;;;5048275;28;20090;-61
2021/08/15 12:44:28;;;;;;;29.95;17.75;;;;;;;;;;5027811;28;20075;-61
2021/08/15 12:47:04;;;;;;;26.35;17.45;;;;;;;;;;5044706;28;20067;-61
2021/08/15 12:49:39;;;;;;;29.40;18.63;;;;;;;;;;5036540;28;20116;-61
2021/08/15 12:52:11;;;;;;;31.63;18.73;;;;;;;;;;5043103;28;20067;-61
2021/08/15 12:55:15;;;;;;;29.10;18.52;;;;;;;;;;5047058;28;20028;-61
2021/08/15 12:58:07;;;;;;;36.42;19.00;;;;;;;;;;5040687;28;20590;-60
2021/08/15 13:00:39;;;;;;;27.98;19.27;;;;;;;;;;5028208;28;20042;-61
2021/08/15 13:03:07;;;;;;;32.08;19.08;;;;;;;;;;5035128;28;20079;-61
2021/08/15 13:05:34;;;;;;;30.75;19.42;;;;;;;;;;5042568;28;20029;-61
2021/08/15 13:08:00;;;;;;;37.30;21.20;;;;;;;;;;5039792;28;20021;-61
2021/08/15 13:10:26;;;;;;;30.63;19.05;;;;;;;;;;5043331;28;20020;-61
2021/08/15 13:12:53;;;;;;;33.47;19.10;;;;;;;;;;5039518;28;20033;-60
2021/08/15 13:15:20;;;;;;;41.40;20.55;;;;;;;;;;5038265;28;20027;-61
2021/08/15 13:17:46;;;;;;;31.08;19.20;;;;;;;;;;5041873;28;20052;-60
2021/08/15 13:20:15;;;;;;;38.45;15.52;;;;;;;;;;5038710;28;20147;-65
2021/08/15 13:22:41;;;;;;;;;;;;;;;;;;5042620;28;20036;-63
2021/08/15 13:25:07;;;;;;;38.58;14.68;;;;;;;;;;5044928;28;19942;-64
2021/08/15 13:27:33;;;;;;;25.20;7.90;;;;;;;;;;5047201;28;20039;-64
2021/08/15 13:29:58;;;;;;;27.35;11.90;;;;;;;;;;5041619;28;20156;-65
2021/08/15 13:32:24;;;;;;;25.85;10.55;;;;;;;;;;5044648;28;20083;-62
2021/08/15 13:34:55;;;;;;;20.15;6.65;;;;;;;;;;5045688;28;20036;-62
2021/08/15 13:37:24;;;;;;;16.33;6.32;;;;;;;;;;5040577;28;20043;-62
2021/08/15 13:39:53;;;;;;;8.98;3.40;;;;;;;;;;5048677;28;20369;-62
2021/08/15 13:42:22;;;;;;;;;;;;;;;;;;5036570;28;20027;-61
2021/08/15 13:44:49;;;;;;;14.45;5.07;;;;;;;;;;5039719;28;19917;-64
2021/08/15 13:47:15;;;;;;;9.75;3.40;;;;;;;;;;5048721;28;20037;-61
2021/08/15 13:49:40;;;;;;;13.75;3.83;;;;;;;;;;5038240;28;20033;-61
2021/08/15 13:52:06;;;;;;;6.10;3.53;;;;;;;;;;5036671;28;20021;-61
2021/08/15 13:54:31;;;;;;;9.30;3.78;;;;;;;;;;5041790;28;20026;-60
2021/08/15 13:56:57;;;;;;;13.55;5.32;;;;;;;;;;5048438;28;20025;-60
2021/08/15 13:59:22;;;;;;;14.80;6.95;;;;;;;;;;5044634;28;20029;-61
2021/08/15 14:01:48;;;;;;;10.27;5.32;;;;;;;;;;5034890;28;20476;-60
2021/08/15 14:04:13;;;;;;;10.57;5.20;;;;;;;;;;5044144;28;20044;-60
2021/08/15 14:06:39;;;;;;;13.40;6.60;;;;;;;;;;5043655;28;20174;-59
2021/08/15 14:09:05;;;;;;;14.27;6.50;;;;;;;;;;5045392;28;20521;-59
2021/08/15 14:11:30;;;;;;;9.82;4.63;;;;;;;;;;5047147;28;20033;-59
2021/08/15 14:13:55;;;;;;;10.63;4.93;;;;;;;;;;5042522;28;20369;-59
2021/08/15 14:16:21;;;;;;;13.60;6.25;;;;;;;;;;5044310;28;20067;-59
2021/08/15 14:18:46;;;;;;;12.38;5.97;;;;;;;;;;5046492;28;20021;-59
2021/08/15 14:21:12;;;;;;;11.18;5.10;;;;;;;;;;5047129;28;20017;-61
2021/08/15 14:23:37;;;;;;;13.23;4.90;;;;;;;;;;5041656;28;20111;-61
2021/08/15 14:26:03;;;;;;;8.10;4.65;;;;;;;;;;5042382;28;20648;-60
2021/08/15 14:28:28;;;;;;;7.53;3.35;;;;;;;;;;5048610;28;20072;-59